createdAt,value
2023-04-21T00:00:41.762Z,101497.44
2023-04-21T00:02:43.705Z,101492.34
2023-04-21T00:04:46.151Z,101493.91
2023-04-21T00:06:48.072Z,101487.38
2023-04-21T00:08:50.840Z,101478.91
2023-04-21T00:10:52.781Z,101477.47
2023-04-21T00:12:54.512Z,101476.03
2023-04-21T00:14:56.312Z,101473.31
2023-04-21T00:17:00.337Z,101488.06
2023-04-21T00:19:02.593Z,101474.06
2023-04-21T00:21:04.773Z,101480.47
2023-04-21T00:23:06.619Z,101469.34
2023-04-21T00:25:08.878Z,101462.50
2023-04-21T00:27:11.598Z,101463.19
2023-04-21T00:29:16.678Z,101467.44
2023-04-21T00:31:18.643Z,101468.34
2023-04-21T00:33:21.128Z,101463.13
2023-04-21T00:35:26.157Z,101456.41
2023-04-21T00:37:27.874Z,101459.66
2023-04-21T00:39:29.735Z,101464.63
2023-04-21T00:41:34.271Z,101465.50
2023-04-21T00:43:39.251Z,101458.66
2023-04-21T00:45:41.136Z,101447.72
2023-04-21T00:47:43.494Z,101452.81
2023-04-21T00:49:46.776Z,101448.63
2023-04-21T00:51:48.529Z,101449.56
2023-04-21T00:53:51.552Z,101452.13
2023-04-21T00:55:53.413Z,101442.66
2023-04-21T00:57:56.616Z,101430.72
2023-04-21T00:59:58.526Z,101439.50
2023-04-21T01:02:00.500Z,101440.31
2023-04-21T01:04:04.798Z,101429.88
2023-04-21T01:06:07.088Z,101435.16
2023-04-21T01:08:08.843Z,101427.50
2023-04-21T01:10:11.137Z,101423.38
2023-04-21T01:12:13.457Z,101419.72
2023-04-21T01:14:15.247Z,101421.16
2023-04-21T01:16:18.348Z,101422.22
2023-04-21T01:18:20.157Z,101421.16
2023-04-21T01:20:21.930Z,101416.88
2023-04-21T01:22:23.704Z,101416.09
2023-04-21T01:24:35.434Z,101410.94
2023-04-21T01:26:37.205Z,101415.03
2023-04-21T01:28:39.015Z,101414.34
2023-04-21T01:30:40.765Z,101405.84
2023-04-21T01:32:42.637Z,101402.50
2023-04-21T01:34:45.536Z,101407.38
2023-04-21T01:36:47.457Z,101402.31
2023-04-21T01:38:49.274Z,101414.16
2023-04-21T01:40:53.482Z,101391.13
2023-04-21T01:42:55.840Z,101392.66
2023-04-21T01:44:57.758Z,101388.53
2023-04-21T01:46:59.505Z,101390.38
2023-04-21T01:49:03.402Z,101379.19
2023-04-21T01:51:05.430Z,101371.44
2023-04-21T01:53:07.222Z,101374.06
2023-04-21T01:55:09.868Z,101372.94
2023-04-21T01:57:12.031Z,101378.00
2023-04-21T01:59:13.790Z,101377.38
2023-04-21T02:01:15.614Z,101369.63
2023-04-21T02:03:17.671Z,101371.34
2023-04-21T02:05:22.762Z,101371.34
2023-04-21T02:07:24.544Z,101367.91
2023-04-21T02:09:26.490Z,101373.19
2023-04-21T02:11:28.314Z,101369.63
2023-04-21T02:13:30.051Z,101360.84
2023-04-21T02:15:31.883Z,101361.78
2023-04-21T02:17:33.727Z,101358.25
2023-04-21T02:19:35.505Z,101364.25
2023-04-21T02:21:37.386Z,101361.19
2023-04-21T02:23:39.286Z,101357.13
2023-04-21T02:25:41.027Z,101360.16
2023-04-21T02:27:42.861Z,101353.47
2023-04-21T02:29:44.693Z,101349.16
2023-04-21T02:32:00.641Z,101342.84
2023-04-21T02:34:05.155Z,101339.38
2023-04-21T02:36:07.332Z,101335.25
2023-04-21T02:38:11.390Z,101334.19
2023-04-21T02:40:16.017Z,101323.97
2023-04-21T02:42:17.836Z,101340.09
2023-04-21T02:44:19.595Z,101334.78
2023-04-21T02:46:21.444Z,101321.81
2023-04-21T02:48:23.336Z,101323.56
2023-04-21T02:50:26.261Z,101320.91
2023-04-21T02:52:28.104Z,101321.69
2023-04-21T02:54:29.974Z,101319.13
2023-04-21T02:56:32.165Z,101323.31
2023-04-21T02:58:33.907Z,101315.59
2023-04-21T03:00:35.912Z,101320.75
2023-04-21T03:02:37.843Z,101314.63
2023-04-21T03:04:39.950Z,101318.09
2023-04-21T03:06:42.407Z,101313.63
2023-04-21T03:08:44.235Z,101314.50
2023-04-21T03:10:46.018Z,101317.22
2023-04-21T03:12:47.769Z,101312.88
2023-04-21T03:14:49.522Z,101314.53
2023-04-21T03:16:51.487Z,101306.84
2023-04-21T03:18:53.645Z,101305.09
2023-04-21T03:21:00.408Z,101303.13
2023-04-21T03:23:02.292Z,101293.69
2023-04-21T03:25:05.140Z,101296.25
2023-04-21T03:27:07.576Z,101299.78
2023-04-21T03:29:10.467Z,101294.63
2023-04-21T03:31:12.195Z,101298.16
2023-04-21T03:33:13.980Z,101287.09
2023-04-21T03:35:15.940Z,101288.97
2023-04-21T03:37:17.730Z,101282.81
2023-04-21T03:39:20.314Z,101278.13
2023-04-21T03:41:22.481Z,101276.59
2023-04-21T03:43:24.238Z,101271.63
2023-04-21T03:45:26.123Z,101275.16
2023-04-21T03:47:28.040Z,101284.53
2023-04-21T03:49:29.889Z,101280.09
2023-04-21T03:51:32.539Z,101279.25
2023-04-21T03:53:34.264Z,101279.09
2023-04-21T03:55:36.129Z,101278.25
2023-04-21T03:57:41.206Z,101265.41
2023-04-21T03:59:43.281Z,101254.38
2023-04-21T04:01:45.012Z,101255.25
2023-04-21T04:03:47.026Z,101250.31
2023-04-21T04:05:48.797Z,101246.75
2023-04-21T04:07:50.538Z,101237.22
2023-04-21T04:09:52.317Z,101238.13
2023-04-21T04:11:54.073Z,101237.34
2023-04-21T04:13:55.837Z,101239.84
2023-04-21T04:15:58.792Z,101234.34
2023-04-21T04:18:00.642Z,101237.97
2023-04-21T04:20:04.821Z,101232.72
2023-04-21T04:22:06.646Z,101231.66
2023-04-21T04:24:12.167Z,101236.66
2023-04-21T04:26:13.877Z,101232.63
2023-04-21T04:28:16.652Z,101220.28
2023-04-21T04:30:18.409Z,101231.50
2023-04-21T04:32:22.480Z,101228.88
2023-04-21T04:34:24.573Z,101211.84
2023-04-21T04:36:28.581Z,101217.88
2023-04-21T04:38:30.437Z,101220.34
2023-04-21T04:40:33.439Z,101212.50
2023-04-21T04:42:36.888Z,101210.34
2023-04-21T04:44:38.770Z,101204.25
2023-04-21T04:46:40.915Z,101203.97
2023-04-21T04:48:42.791Z,101197.06
2023-04-21T04:50:44.976Z,101198.72
2023-04-21T04:52:47.625Z,101202.25
2023-04-21T04:54:49.452Z,101191.81
2023-04-21T04:56:51.210Z,101191.94
2023-04-21T04:58:52.944Z,101189.66
2023-04-21T05:00:54.851Z,101190.50
2023-04-21T05:02:56.730Z,101194.06
2023-04-21T05:04:58.817Z,101190.66
2023-04-21T05:07:00.841Z,101182.00
2023-04-21T05:09:02.832Z,101185.53
2023-04-21T05:11:04.814Z,101189.91
2023-04-21T05:13:06.865Z,101193.25
2023-04-21T05:15:09.606Z,101184.69
2023-04-21T05:17:11.432Z,101183.03
2023-04-21T05:19:13.223Z,101182.25
2023-04-21T05:21:14.978Z,101176.19
2023-04-21T05:23:16.869Z,101173.50
2023-04-21T05:25:18.702Z,101175.19
2023-04-21T05:27:20.520Z,101176.28
2023-04-21T05:29:22.245Z,101170.31
2023-04-21T05:31:25.025Z,101178.16
2023-04-21T05:33:27.113Z,101165.38
2023-04-21T05:35:31.286Z,101158.56
2023-04-21T05:37:33.154Z,101158.75
2023-04-21T05:39:34.974Z,101150.94
2023-04-21T05:41:36.884Z,101158.47
2023-04-21T05:43:38.724Z,101147.50
2023-04-21T05:45:41.188Z,101148.25
2023-04-21T05:47:43.158Z,101159.06
2023-04-21T05:49:50.437Z,101155.22
2023-04-21T05:51:52.409Z,101148.25
2023-04-21T05:53:54.405Z,101148.19
2023-04-21T05:55:56.121Z,101144.97
2023-04-21T05:57:57.998Z,101156.16
2023-04-21T05:59:59.764Z,101136.97
2023-04-21T06:02:04.779Z,101137.09
2023-04-21T06:04:07.039Z,101133.75
2023-04-21T06:06:11.627Z,101127.06
2023-04-21T06:08:13.867Z,101134.06
2023-04-21T06:10:19.624Z,101129.63
2023-04-21T06:12:21.343Z,101135.81
2023-04-21T06:14:25.277Z,101131.66
2023-04-21T06:16:27.364Z,101124.78
2023-04-21T06:18:29.211Z,101126.50
2023-04-21T06:20:31.219Z,101133.53
2023-04-21T06:22:33.801Z,101124.16
2023-04-21T06:24:35.636Z,101121.81
2023-04-21T06:26:37.637Z,101120.13
2023-04-21T06:28:39.777Z,101105.63
2023-04-21T06:30:41.615Z,101107.75
2023-04-21T06:32:43.881Z,101106.41
2023-04-21T06:34:45.828Z,101093.66
2023-04-21T06:36:47.680Z,101096.25
2023-04-21T06:38:49.582Z,101089.50
2023-04-21T06:40:52.067Z,101082.75
2023-04-21T06:42:53.855Z,101084.44
2023-04-21T06:44:56.766Z,101076.66
2023-04-21T06:46:58.646Z,101079.47
2023-04-21T06:49:00.539Z,101076.16
2023-04-21T06:51:02.888Z,101071.91
2023-04-21T06:53:05.027Z,101069.31
2023-04-21T06:55:07.566Z,101074.53
2023-04-21T06:57:09.551Z,101078.63
2023-04-21T06:59:11.608Z,101078.88
2023-04-21T07:01:13.737Z,101076.16
2023-04-21T07:03:16.206Z,101078.56
2023-04-21T07:05:18.239Z,101069.56
2023-04-21T07:07:20.114Z,101072.06
2023-04-21T07:09:22.553Z,101069.31
2023-04-21T07:11:24.433Z,101059.09
2023-04-21T07:13:26.470Z,101052.38
2023-04-21T07:15:28.284Z,101055.94
2023-04-21T07:17:30.267Z,101042.16
2023-04-21T07:19:33.548Z,101046.66
2023-04-21T07:21:36.448Z,101044.16
2023-04-21T07:23:38.335Z,101039.44
2023-04-21T07:25:40.330Z,101043.78
2023-04-21T07:27:42.285Z,101040.97
2023-04-21T07:29:44.286Z,101046.13
2023-04-21T07:31:48.389Z,101049.66
2023-04-21T07:33:50.923Z,101049.66
2023-04-21T07:35:53.370Z,101038.38
2023-04-21T07:37:55.327Z,101045.25
2023-04-21T07:39:57.169Z,101042.66
2023-04-21T07:41:58.957Z,101041.81
2023-04-21T07:44:01.036Z,101048.47
2023-04-21T07:46:03.153Z,101038.03
2023-04-21T07:48:07.981Z,101039.78
2023-04-21T07:50:10.799Z,101025.84
2023-04-21T07:52:12.892Z,101025.09
2023-04-21T07:54:14.856Z,101028.53
2023-04-21T07:56:17.450Z,101022.63
2023-04-21T07:58:19.682Z,101026.94
2023-04-21T08:00:22.167Z,101021.09
2023-04-21T08:02:24.445Z,101013.88
2023-04-21T08:04:27.403Z,101017.38
2023-04-21T08:06:29.907Z,101007.25
2023-04-21T08:08:32.198Z,101012.22
2023-04-21T08:10:34.673Z,101004.59
2023-04-21T08:12:36.751Z,101003.84
2023-04-21T08:14:38.914Z,100994.19
2023-04-21T08:16:42.662Z,100996.03
2023-04-21T08:18:48.435Z,100997.81
2023-04-21T08:20:52.808Z,101009.03
2023-04-21T08:22:55.191Z,101008.22
2023-04-21T08:24:57.407Z,101005.75
2023-04-21T08:26:59.640Z,101006.50
2023-04-21T08:29:04.032Z,101009.19
2023-04-21T08:31:06.688Z,101009.16
2023-04-21T08:33:13.811Z,101004.06
2023-04-21T08:35:16.201Z,101005.72
2023-04-21T08:37:20.079Z,101008.31
2023-04-21T08:39:22.335Z,101008.09
2023-04-21T08:41:25.729Z,101002.94
2023-04-21T08:43:29.651Z,100997.75
2023-04-21T08:45:32.304Z,100998.50
2023-04-21T08:47:35.489Z,100999.19
2023-04-21T08:49:39.978Z,101006.22
2023-04-21T08:51:42.894Z,100998.22
2023-04-21T08:53:46.846Z,101001.66
2023-04-21T08:56:07.540Z,101005.19
2023-04-21T08:58:15.896Z,101000.13
2023-04-21T09:00:18.525Z,101004.47
2023-04-21T09:02:21.014Z,101002.78
2023-04-21T09:04:23.722Z,101000.31
2023-04-21T09:06:43.742Z,100995.97
2023-04-21T09:08:56.473Z,101006.22
2023-04-21T09:11:01.737Z,100997.59
2023-04-21T09:13:09.238Z,101002.66
2023-04-21T09:15:12.852Z,100992.38
2023-04-21T09:17:21.550Z,100995.16
2023-04-21T09:19:23.876Z,100993.97
2023-04-21T09:21:31.436Z,100997.63
2023-04-21T09:23:44.081Z,100997.72
2023-04-21T09:25:46.683Z,101006.34
2023-04-21T09:27:49.008Z,101001.09
2023-04-21T09:29:51.368Z,101003.69
2023-04-21T09:31:53.490Z,101007.50
2023-04-21T09:34:00.461Z,101007.63
2023-04-21T09:36:03.488Z,101005.81
2023-04-21T09:38:12.692Z,101001.91
2023-04-21T09:40:15.718Z,100996.25
2023-04-21T09:42:17.693Z,100991.28
2023-04-21T09:44:21.354Z,100999.78
2023-04-21T09:46:24.823Z,100998.13
2023-04-21T09:48:32.098Z,100994.72
2023-04-21T09:51:11.483Z,100993.88
2023-04-21T09:52:57.627Z,100995.56
2023-04-21T09:55:04.471Z,100996.41
2023-04-21T09:57:07.587Z,100993.06
2023-04-21T09:59:17.548Z,101003.25
2023-04-21T10:01:20.410Z,100994.69
2023-04-21T10:03:27.946Z,100999.72
2023-04-21T10:05:30.427Z,100996.94
2023-04-21T10:07:35.060Z,100986.03
2023-04-21T10:09:43.451Z,100991.94
2023-04-21T10:11:45.974Z,100978.47
2023-04-21T10:13:48.169Z,100983.69
2023-04-21T10:16:03.459Z,100989.56
2023-04-21T10:18:22.004Z,100989.63
2023-04-21T10:20:24.203Z,100985.94
2023-04-21T10:22:36.535Z,100987.06
2023-04-21T10:24:41.389Z,100983.69
2023-04-21T10:26:43.644Z,100981.94
2023-04-21T10:28:48.765Z,100984.72
2023-04-21T10:30:51.646Z,100988.09
2023-04-21T10:33:04.910Z,100983.19
2023-04-21T10:35:10.166Z,100983.84
2023-04-21T10:37:15.953Z,100983.75
2023-04-21T10:39:31.756Z,100987.88
2023-04-21T10:41:35.519Z,100984.13
2023-04-21T10:43:48.171Z,100979.06
2023-04-21T10:45:51.615Z,100987.88
2023-04-21T10:47:54.404Z,100984.94
2023-04-21T10:49:58.519Z,100980.31
2023-04-21T10:52:02.742Z,100976.69
2023-04-21T10:54:06.216Z,100983.69
2023-04-21T10:56:08.596Z,100985.97
2023-04-21T10:58:10.870Z,100986.13
2023-04-21T11:00:19.318Z,100976.69
2023-04-21T11:02:21.891Z,100986.41
2023-04-21T11:04:24.880Z,100978.50
2023-04-21T11:06:27.647Z,100980.34
2023-04-21T11:08:30.926Z,100980.16
2023-04-21T11:10:43.953Z,100976.88
2023-04-21T11:12:46.226Z,100977.69
2023-04-21T11:14:48.915Z,100968.78
2023-04-21T11:16:51.662Z,100970.78
2023-04-21T11:18:56.541Z,100966.41
2023-04-21T11:21:08.802Z,100962.69
2023-04-21T11:23:17.397Z,100959.34
2023-04-21T11:25:19.806Z,100956.09
2023-04-21T11:27:23.868Z,100957.94
2023-04-21T11:29:26.246Z,100961.25
2023-04-21T11:31:31.254Z,100961.22
2023-04-21T11:33:38.271Z,100957.19
2023-04-21T11:35:42.178Z,100958.84
2023-04-21T11:37:44.226Z,100960.00
2023-04-21T11:39:46.469Z,100956.56
2023-04-21T11:41:50.113Z,100959.13
2023-04-21T11:43:53.347Z,100954.44
2023-04-21T11:45:55.588Z,100945.28
2023-04-21T11:48:15.785Z,100951.06
2023-04-21T11:50:32.680Z,100947.72
2023-04-21T11:52:37.751Z,100948.84
2023-04-21T11:54:40.086Z,100953.91
2023-04-21T11:56:47.718Z,100956.06
2023-04-21T11:58:51.971Z,100949.91
2023-04-21T12:00:54.118Z,100950.56
2023-04-21T12:02:57.321Z,100951.59
2023-04-21T12:05:09.294Z,100955.75
2023-04-21T12:07:11.878Z,100955.41
2023-04-21T12:09:19.487Z,100949.19
2023-04-21T12:11:21.560Z,100955.44
2023-04-21T12:13:24.448Z,100948.56
2023-04-21T12:15:26.807Z,100952.03
2023-04-21T12:17:38.975Z,100949.16
2023-04-21T12:19:42.765Z,100957.22
2023-04-21T12:21:44.869Z,100961.44
2023-04-21T12:23:47.067Z,100961.00
2023-04-21T12:25:49.060Z,100961.75
2023-04-21T12:27:54.407Z,100958.25
2023-04-21T12:29:56.515Z,100963.31
2023-04-21T12:31:58.800Z,100968.47
2023-04-21T12:34:01.110Z,100960.66
2023-04-21T12:36:03.257Z,100958.13
2023-04-21T12:38:05.894Z,100954.72
2023-04-21T12:40:09.033Z,100956.13
2023-04-21T12:42:11.601Z,100958.13
2023-04-21T12:44:14.684Z,100950.97
2023-04-21T12:46:17.390Z,100954.72
2023-04-21T12:48:20.792Z,100954.59
2023-04-21T12:50:23.276Z,100951.19
2023-04-21T12:52:25.807Z,100946.50
2023-04-21T12:54:29.059Z,100944.59
2023-04-21T12:56:31.594Z,100950.06
2023-04-21T12:58:34.112Z,100947.81
2023-04-21T13:00:36.851Z,100943.00
2023-04-21T13:02:39.933Z,100944.50
2023-04-21T13:04:42.929Z,100942.81
2023-04-21T13:06:45.239Z,100941.28
2023-04-21T13:08:47.896Z,100942.59
2023-04-21T13:10:50.206Z,100937.69
2023-04-21T13:12:52.939Z,100936.75
2023-04-21T13:14:55.433Z,100940.19
2023-04-21T13:16:58.066Z,100933.72
2023-04-21T13:19:00.875Z,100940.59
2023-04-21T13:21:03.477Z,100941.47
2023-04-21T13:23:11.512Z,100937.19
2023-04-21T13:25:14.456Z,100935.66
2023-04-21T13:27:16.711Z,100935.84
2023-04-21T13:29:19.017Z,100935.69
2023-04-21T13:31:21.492Z,100939.25
2023-04-21T13:33:24.198Z,100940.88
2023-04-21T13:35:27.062Z,100937.88
2023-04-21T13:37:29.567Z,100931.22
2023-04-21T13:39:32.074Z,100930.38
2023-04-21T13:41:35.277Z,100931.25
2023-04-21T13:43:37.726Z,100933.09
2023-04-21T13:45:40.122Z,100936.56
2023-04-21T13:47:42.775Z,100929.22
2023-04-21T13:49:45.157Z,100933.00
2023-04-21T13:51:47.277Z,100924.97
2023-04-21T13:53:49.500Z,100923.19
2023-04-21T13:55:53.322Z,100921.00
2023-04-21T13:57:55.643Z,100917.91
2023-04-21T13:59:57.989Z,100917.38
2023-04-21T14:02:00.744Z,100919.81
2023-04-21T14:04:03.964Z,100913.59
2023-04-21T14:06:06.724Z,100916.44
2023-04-21T14:08:09.205Z,100912.97
2023-04-21T14:10:12.518Z,100908.63
2023-04-21T14:12:14.858Z,100906.13
2023-04-21T14:14:27.587Z,100907.75
2023-04-21T14:16:39.749Z,100904.81
2023-04-21T14:18:45.438Z,100900.06
2023-04-21T14:20:47.805Z,100894.22
2023-04-21T14:22:50.374Z,100893.53
2023-04-21T14:24:52.402Z,100892.59
2023-04-21T14:26:55.019Z,100895.31
2023-04-21T14:28:57.482Z,100896.09
2023-04-21T14:30:59.687Z,100893.66
2023-04-21T14:33:02.479Z,100889.53
2023-04-21T14:35:06.073Z,100887.84
2023-04-21T14:37:08.443Z,100878.47
2023-04-21T14:39:10.975Z,100874.81
2023-04-21T14:41:13.720Z,100882.38
2023-04-21T14:43:16.657Z,100884.06
2023-04-21T14:45:19.373Z,100876.50
2023-04-21T14:47:23.036Z,100866.28
2023-04-21T14:49:25.668Z,100868.94
2023-04-21T14:51:28.400Z,100866.50
2023-04-21T14:53:30.956Z,100862.91
2023-04-21T14:55:34.179Z,100862.13
2023-04-21T14:57:36.807Z,100856.97
2023-04-21T14:59:39.580Z,100861.28
2023-04-21T15:01:42.126Z,100857.69
2023-04-21T15:03:46.123Z,100859.09
2023-04-21T15:05:49.470Z,100857.53
2023-04-21T15:07:52.244Z,100856.66
2023-04-21T15:09:55.909Z,100856.72
2023-04-21T15:11:58.091Z,100853.13
2023-04-21T15:14:00.847Z,100848.34
2023-04-21T15:16:03.564Z,100846.63
2023-04-21T15:18:06.136Z,100841.59
2023-04-21T15:20:10.508Z,100840.63
2023-04-21T15:22:13.163Z,100838.13
2023-04-21T15:24:15.749Z,100849.13
2023-04-21T15:26:18.026Z,100839.81
2023-04-21T15:28:20.473Z,100840.78
2023-04-21T15:30:23.223Z,100839.84
2023-04-21T15:32:25.889Z,100839.66
2023-04-21T15:34:29.692Z,100831.16
2023-04-21T15:36:32.536Z,100835.19
2023-04-21T15:38:35.478Z,100835.03
2023-04-21T15:40:46.280Z,100832.75
2023-04-21T15:42:55.691Z,100826.84
2023-04-21T15:44:58.217Z,100832.63
2023-04-21T15:47:00.651Z,100822.69
2023-04-21T15:49:04.304Z,100816.81
2023-04-21T15:51:07.378Z,100817.38
2023-04-21T15:53:09.561Z,100809.00
2023-04-21T15:55:12.942Z,100806.34
2023-04-21T15:57:15.804Z,100803.94
2023-04-21T15:59:18.263Z,100800.63
2023-04-21T16:01:21.829Z,100795.47
2023-04-21T16:03:24.874Z,100795.50
2023-04-21T16:05:29.110Z,100796.44
2023-04-21T16:07:31.652Z,100800.84
2023-04-21T16:09:34.420Z,100799.09
2023-04-21T16:11:36.787Z,100800.84
2023-04-21T16:13:39.010Z,100790.19
2023-04-21T16:15:44.002Z,100791.13
2023-04-21T16:17:46.625Z,100785.03
2023-04-21T16:19:49.252Z,100786.88
2023-04-21T16:21:51.485Z,100784.44
2023-04-21T16:23:54.176Z,100792.16
2023-04-21T16:25:56.876Z,100777.41
2023-04-21T16:27:59.492Z,100777.38
2023-04-21T16:30:01.913Z,100785.81
2023-04-21T16:32:04.633Z,100778.13
2023-04-21T16:34:07.322Z,100782.25
2023-04-21T16:36:09.757Z,100783.75
2023-04-21T16:38:13.969Z,100779.50
2023-04-21T16:40:16.449Z,100784.69
2023-04-21T16:42:18.549Z,100785.50
2023-04-21T16:44:21.170Z,100786.31
2023-04-21T16:46:25.551Z,100791.53
2023-04-21T16:48:28.590Z,100790.53
2023-04-21T16:50:31.259Z,100784.44
2023-04-21T16:52:33.717Z,100790.38
2023-04-21T16:54:39.027Z,100794.75
2023-04-21T16:56:41.576Z,100787.09
2023-04-21T16:58:43.966Z,100785.38
2023-04-21T17:00:46.615Z,100787.88
2023-04-21T17:02:49.158Z,100782.81
2023-04-21T17:04:52.089Z,100779.22
2023-04-21T17:06:54.214Z,100778.50
2023-04-21T17:09:00.039Z,100778.50
2023-04-21T17:11:02.599Z,100782.13
2023-04-21T17:13:06.347Z,100785.66
2023-04-21T17:15:09.554Z,100775.31
2023-04-21T17:17:11.796Z,100777.97
2023-04-21T17:19:14.206Z,100773.72
2023-04-21T17:21:19.730Z,100777.91
2023-04-21T17:23:22.197Z,100769.25
2023-04-21T17:25:24.355Z,100770.91
2023-04-21T17:27:26.552Z,100772.44
2023-04-21T17:29:28.922Z,100762.97
2023-04-21T17:31:33.389Z,100757.03
2023-04-21T17:33:38.339Z,100755.78
2023-04-21T17:35:46.019Z,100751.75
2023-04-21T17:37:54.759Z,100749.16
2023-04-21T17:39:59.209Z,100754.34
2023-04-21T17:42:03.297Z,100756.97
2023-04-21T17:44:05.570Z,100750.91
2023-04-21T17:46:10.367Z,100751.56
2023-04-21T17:48:12.773Z,100745.63
2023-04-21T17:50:15.117Z,100747.28
2023-04-21T17:52:17.481Z,100755.72
2023-04-21T17:54:19.672Z,100742.09
2023-04-21T17:56:22.564Z,100748.97
2023-04-21T17:58:26.449Z,100753.25
2023-04-21T18:00:34.612Z,100742.88
2023-04-21T18:02:36.891Z,100741.31
2023-04-21T18:04:39.702Z,100742.09
2023-04-21T18:06:42.440Z,100741.22
2023-04-21T18:08:47.269Z,100740.16
2023-04-21T18:10:49.166Z,100733.16
2023-04-21T18:12:51.468Z,100734.09
2023-04-21T18:14:53.655Z,100729.19
2023-04-21T18:16:55.766Z,100730.81
2023-04-21T18:19:01.979Z,100728.25
2023-04-21T18:21:04.607Z,100732.41
2023-04-21T18:23:06.686Z,100730.63
2023-04-21T18:25:09.183Z,100738.50
2023-04-21T18:27:11.560Z,100734.22
2023-04-21T18:29:17.987Z,100745.41
2023-04-21T18:31:21.903Z,100737.56
2023-04-21T18:33:27.517Z,100732.59
2023-04-21T18:35:29.803Z,100738.44
2023-04-21T18:37:32.038Z,100733.22
2023-04-21T18:39:34.169Z,100735.59
2023-04-21T18:41:37.305Z,100733.00
2023-04-21T18:43:39.511Z,100723.28
2023-04-21T18:45:41.964Z,100733.50
2023-04-21T18:47:45.958Z,100719.63
2023-04-21T18:49:48.227Z,100718.84
2023-04-21T18:51:50.363Z,100722.41
2023-04-21T18:53:52.500Z,100716.25
2023-04-21T18:55:54.554Z,100719.56
2023-04-21T18:57:59.370Z,100717.69
2023-04-21T19:00:01.722Z,100716.00
2023-04-21T19:02:06.480Z,100715.31
2023-04-21T19:04:10.357Z,100706.53
2023-04-21T19:06:12.593Z,100715.34
2023-04-21T19:08:14.911Z,100720.16
2023-04-21T19:10:17.090Z,100722.78
2023-04-21T19:12:20.277Z,100720.94
2023-04-21T19:14:22.669Z,100721.06
2023-04-21T19:16:24.964Z,100717.59
2023-04-21T19:18:26.951Z,100716.72
2023-04-21T19:20:29.959Z,100721.00
2023-04-21T19:22:33.671Z,100722.66
2023-04-21T19:24:39.024Z,100715.03
2023-04-21T19:26:41.339Z,100715.88
2023-04-21T19:28:43.638Z,100714.91
2023-04-21T19:30:45.494Z,100719.94
2023-04-21T19:32:47.619Z,100716.72
2023-04-21T19:34:49.729Z,100720.94
2023-04-21T19:36:53.031Z,100722.66
2023-04-21T19:38:55.111Z,100715.75
2023-04-21T19:40:57.565Z,100720.16
2023-04-21T19:42:59.359Z,100710.41
2023-04-21T19:45:01.225Z,100703.69
2023-04-21T19:47:03.230Z,100705.91
2023-04-21T19:49:05.296Z,100707.56
2023-04-21T19:51:07.786Z,100696.41
2023-04-21T19:53:14.623Z,100695.84
2023-04-21T19:55:16.665Z,100692.25
2023-04-21T19:57:18.722Z,100685.47
2023-04-21T19:59:20.764Z,100692.94
2023-04-21T20:01:22.912Z,100684.34
2023-04-21T20:03:25.022Z,100690.34
2023-04-21T20:05:27.122Z,100702.22
2023-04-21T20:07:29.052Z,100697.22
2023-04-21T20:09:31.227Z,100698.91
2023-04-21T20:11:34.151Z,100704.03
2023-04-21T20:13:36.212Z,100699.78
2023-04-21T20:15:39.537Z,100696.28
2023-04-21T20:17:47.356Z,100698.81
2023-04-21T20:19:49.337Z,100700.53
2023-04-21T20:21:51.197Z,100693.75
2023-04-21T20:23:56.456Z,100698.16
2023-04-21T20:25:58.511Z,100696.47
2023-04-21T20:28:00.758Z,100699.91
2023-04-21T20:30:03.085Z,100698.19
2023-04-21T20:32:05.187Z,100694.75
2023-04-21T20:34:08.508Z,100695.59
2023-04-21T20:36:12.176Z,100696.41
2023-04-21T20:38:14.671Z,100703.22
2023-04-21T20:40:18.894Z,100703.09
2023-04-21T20:42:21.961Z,100704.03
2023-04-21T20:44:24.594Z,100710.75
2023-04-21T20:46:27.605Z,100708.78
2023-04-21T20:48:29.571Z,100711.38
2023-04-21T20:50:31.421Z,100705.47
2023-04-21T20:52:33.217Z,100713.19
2023-04-21T20:54:35.553Z,100708.94
2023-04-21T20:56:39.931Z,100708.84
2023-04-21T20:58:41.750Z,100703.53
2023-04-21T21:00:43.696Z,100698.38
2023-04-21T21:02:45.872Z,100693.28
2023-04-21T21:04:47.930Z,100691.69
2023-04-21T21:06:49.857Z,100684.03
2023-04-21T21:08:54.153Z,100693.41
2023-04-21T21:10:56.194Z,100680.63
2023-04-21T21:13:00.231Z,100683.97
2023-04-21T21:15:02.110Z,100684.09
2023-04-21T21:17:03.952Z,100677.22
2023-04-21T21:19:06.073Z,100678.13
2023-04-21T21:21:08.273Z,100680.75
2023-04-21T21:23:10.091Z,100676.44
2023-04-21T21:25:12.113Z,100680.72
2023-04-21T21:27:13.924Z,100679.91
2023-04-21T21:29:15.757Z,100676.50
2023-04-21T21:31:17.648Z,100679.00
2023-04-21T21:33:20.971Z,100675.59
2023-04-21T21:35:23.176Z,100675.47
2023-04-21T21:37:25.126Z,100672.13
2023-04-21T21:39:27.281Z,100665.16
2023-04-21T21:41:32.262Z,100666.00
2023-04-21T21:43:34.281Z,100661.63
2023-04-21T21:45:36.211Z,100665.91
2023-04-21T21:47:41.720Z,100660.69
2023-04-21T21:49:44.943Z,100659.81
2023-04-21T21:51:46.714Z,100653.81
2023-04-21T21:53:48.569Z,100653.03
2023-04-21T21:55:50.451Z,100654.66
2023-04-21T21:57:52.722Z,100654.66
2023-04-21T21:59:54.614Z,100656.47
2023-04-21T22:01:56.484Z,100652.97
2023-04-21T22:03:58.458Z,100654.66
2023-04-21T22:06:00.979Z,100658.09
2023-04-21T22:08:04.201Z,100658.09
2023-04-21T22:10:07.023Z,100654.66
2023-04-21T22:12:09.458Z,100656.28
2023-04-21T22:14:21.801Z,100659.59
2023-04-21T22:16:25.651Z,100669.97
2023-04-21T22:18:27.702Z,100666.47
2023-04-21T22:20:30.279Z,100666.38
2023-04-21T22:22:32.213Z,100669.88
2023-04-21T22:24:34.366Z,100663.03
2023-04-21T22:26:36.540Z,100660.44
2023-04-21T22:28:38.875Z,100663.88
2023-04-21T22:30:41.072Z,100663.88
2023-04-21T22:32:43.569Z,100651.84
2023-04-21T22:34:45.996Z,100657.84
2023-04-21T22:36:47.782Z,100658.66
2023-04-21T22:38:49.654Z,100655.25
2023-04-21T22:40:51.550Z,100653.56
2023-04-21T22:42:54.206Z,100645.81
2023-04-21T22:44:56.442Z,100646.56
2023-04-21T22:47:00.870Z,100638.88
2023-04-21T22:49:03.954Z,100638.91
2023-04-21T22:51:07.643Z,100638.00
2023-04-21T22:53:09.415Z,100650.91
2023-04-21T22:55:11.220Z,100641.53
2023-04-21T22:57:14.523Z,100644.91
2023-04-21T22:59:16.963Z,100649.94
2023-04-21T23:01:19.133Z,100650.84
2023-04-21T23:03:22.372Z,100646.56
2023-04-21T23:05:24.352Z,100643.97
2023-04-21T23:07:26.155Z,100641.41
2023-04-21T23:09:28.024Z,100629.38
2023-04-21T23:11:29.947Z,100629.38
2023-04-21T23:13:33.067Z,100627.66
2023-04-21T23:15:34.891Z,100630.13
2023-04-21T23:17:36.742Z,100621.53
2023-04-21T23:19:38.881Z,100627.50
2023-04-21T23:21:41.092Z,100629.06
2023-04-21T23:23:43.076Z,100624.78
2023-04-21T23:25:45.474Z,100624.75